sensor_id;sensor_type;location;lat;lon;timestamp;P1;durP1;ratioP1;P2;durP2;ratioP2
22223;SDS011;11281;52.194;21.006;2023-05-10T00:01:37;9.55;;;5.38;;
22223;SDS011;11281;52.194;21.006;2023-05-10T00:05:39;10.38;;;5.38;;
22223;SDS011;11281;52.194;21.006;2023-05-10T00:09:41;10.80;;;5.40;;
22223;SDS011;11281;52.194;21.006;2023-05-10T00:13:42;10.63;;;5.65;;
22223;SDS011;11281;52.194;21.006;2023-05-10T00:17:44;10.68;;;6.07;;
22223;SDS011;11281;52.194;21.006;2023-05-10T00:21:45;7.65;;;4.55;;
22223;SDS011;11281;52.194;21.006;2023-05-10T00:25:47;9.68;;;5.82;;
22223;SDS011;11281;52.194;21.006;2023-05-10T00:29:49;13.10;;;5.88;;
22223;SDS011;11281;52.194;21.006;2023-05-10T00:33:50;8.98;;;5.93;;
22223;SDS011;11281;52.194;21.006;2023-05-10T00:37:52;9.55;;;5.90;;
22223;SDS011;11281;52.194;21.006;2023-05-10T00:41:54;8.32;;;5.18;;
22223;SDS011;11281;52.194;21.006;2023-05-10T00:45:56;7.95;;;5.05;;
22223;SDS011;11281;52.194;21.006;2023-05-10T00:49:58;7.70;;;5.03;;
22223;SDS011;11281;52.194;21.006;2023-05-10T00:54:02;7.63;;;4.88;;
22223;SDS011;11281;52.194;21.006;2023-05-10T00:58:04;10.73;;;4.90;;
22223;SDS011;11281;52.194;21.006;2023-05-10T01:02:06;7.75;;;5.05;;
22223;SDS011;11281;52.194;21.006;2023-05-10T01:06:07;10.30;;;4.50;;
22223;SDS011;11281;52.194;21.006;2023-05-10T01:10:10;10.55;;;5.28;;
22223;SDS011;11281;52.194;21.006;2023-05-10T01:14:12;7.78;;;5.10;;
22223;SDS011;11281;52.194;21.006;2023-05-10T01:18:15;7.35;;;4.50;;
22223;SDS011;11281;52.194;21.006;2023-05-10T01:26:45;8.55;;;5.10;;
22223;SDS011;11281;52.194;21.006;2023-05-10T01:35:43;10.05;;;5.63;;
22223;SDS011;11281;52.194;21.006;2023-05-10T01:40:01;8.77;;;5.28;;
22223;SDS011;11281;52.194;21.006;2023-05-10T01:44:19;9.35;;;5.38;;
22223;SDS011;11281;52.194;21.006;2023-05-10T01:48:40;9.75;;;4.72;;
22223;SDS011;11281;52.194;21.006;2023-05-10T01:52:53;6.72;;;4.57;;
22223;SDS011;11281;52.194;21.006;2023-05-10T01:56:59;7.68;;;4.28;;
22223;SDS011;11281;52.194;21.006;2023-05-10T02:01:04;9.30;;;4.57;;
22223;SDS011;11281;52.194;21.006;2023-05-10T02:05:08;7.65;;;4.78;;
22223;SDS011;11281;52.194;21.006;2023-05-10T02:09:12;5.47;;;4.20;;
22223;SDS011;11281;52.194;21.006;2023-05-10T02:13:17;9.15;;;5.28;;
22223;SDS011;11281;52.194;21.006;2023-05-10T02:17:20;12.82;;;5.00;;
22223;SDS011;11281;52.194;21.006;2023-05-10T02:21:23;5.43;;;4.35;;
22223;SDS011;11281;52.194;21.006;2023-05-10T02:25:26;4.75;;;3.95;;
22223;SDS011;11281;52.194;21.006;2023-05-10T02:29:29;10.32;;;4.78;;
22223;SDS011;11281;52.194;21.006;2023-05-10T02:33:33;11.02;;;5.20;;
22223;SDS011;11281;52.194;21.006;2023-05-10T02:37:36;8.27;;;5.00;;
22223;SDS011;11281;52.194;21.006;2023-05-10T02:41:40;10.18;;;4.45;;
22223;SDS011;11281;52.194;21.006;2023-05-10T02:45:43;5.20;;;4.00;;
22223;SDS011;11281;52.194;21.006;2023-05-10T02:49:47;5.57;;;4.03;;
22223;SDS011;11281;52.194;21.006;2023-05-10T02:53:49;7.53;;;4.32;;
22223;SDS011;11281;52.194;21.006;2023-05-10T02:58:00;6.78;;;4.75;;
22223;SDS011;11281;52.194;21.006;2023-05-10T03:02:03;6.43;;;4.10;;
22223;SDS011;11281;52.194;21.006;2023-05-10T03:06:05;9.52;;;4.15;;
22223;SDS011;11281;52.194;21.006;2023-05-10T03:10:07;9.07;;;4.00;;
22223;SDS011;11281;52.194;21.006;2023-05-10T03:14:12;8.93;;;3.92;;
22223;SDS011;11281;52.194;21.006;2023-05-10T03:18:20;8.15;;;3.78;;
22223;SDS011;11281;52.194;21.006;2023-05-10T03:22:25;7.90;;;4.03;;
22223;SDS011;11281;52.194;21.006;2023-05-10T03:26:32;6.18;;;3.88;;
22223;SDS011;11281;52.194;21.006;2023-05-10T03:30:35;5.18;;;4.00;;
22223;SDS011;11281;52.194;21.006;2023-05-10T03:34:41;5.90;;;5.15;;
22223;SDS011;11281;52.194;21.006;2023-05-10T03:38:46;6.35;;;3.50;;
22223;SDS011;11281;52.194;21.006;2023-05-10T03:42:47;5.45;;;3.63;;
22223;SDS011;11281;52.194;21.006;2023-05-10T03:46:49;5.30;;;4.25;;
22223;SDS011;11281;52.194;21.006;2023-05-10T03:50:51;6.75;;;4.50;;
22223;SDS011;11281;52.194;21.006;2023-05-10T03:54:53;8.05;;;4.65;;
22223;SDS011;11281;52.194;21.006;2023-05-10T03:58:54;4.88;;;3.80;;
22223;SDS011;11281;52.194;21.006;2023-05-10T04:02:56;7.93;;;4.45;;
22223;SDS011;11281;52.194;21.006;2023-05-10T04:06:57;4.85;;;3.97;;
22223;SDS011;11281;52.194;21.006;2023-05-10T04:11:08;5.45;;;3.47;;
22223;SDS011;11281;52.194;21.006;2023-05-10T04:15:11;5.93;;;4.05;;
22223;SDS011;11281;52.194;21.006;2023-05-10T04:19:12;8.63;;;4.20;;
22223;SDS011;11281;52.194;21.006;2023-05-10T04:23:14;5.25;;;4.03;;
22223;SDS011;11281;52.194;21.006;2023-05-10T04:27:17;6.85;;;3.60;;
22223;SDS011;11281;52.194;21.006;2023-05-10T04:31:18;10.50;;;4.50;;
22223;SDS011;11281;52.194;21.006;2023-05-10T04:35:20;4.47;;;3.20;;
22223;SDS011;11281;52.194;21.006;2023-05-10T04:39:22;4.93;;;3.58;;
22223;SDS011;11281;52.194;21.006;2023-05-10T04:43:24;12.18;;;4.18;;
22223;SDS011;11281;52.194;21.006;2023-05-10T04:47:25;5.07;;;3.30;;
22223;SDS011;11281;52.194;21.006;2023-05-10T04:51:27;5.35;;;3.63;;
22223;SDS011;11281;52.194;21.006;2023-05-10T04:55:28;6.18;;;3.90;;
22223;SDS011;11281;52.194;21.006;2023-05-10T04:59:30;6.75;;;4.28;;
22223;SDS011;11281;52.194;21.006;2023-05-10T05:03:31;7.85;;;4.35;;
22223;SDS011;11281;52.194;21.006;2023-05-10T05:07:33;4.65;;;3.85;;
22223;SDS011;11281;52.194;21.006;2023-05-10T05:11:35;4.78;;;3.78;;
22223;SDS011;11281;52.194;21.006;2023-05-10T05:15:37;7.30;;;4.10;;
22223;SDS011;11281;52.194;21.006;2023-05-10T05:19:39;3.95;;;3.00;;
22223;SDS011;11281;52.194;21.006;2023-05-10T05:23:41;7.53;;;3.95;;
22223;SDS011;11281;52.194;21.006;2023-05-10T05:27:43;6.07;;;3.72;;
22223;SDS011;11281;52.194;21.006;2023-05-10T05:31:45;6.13;;;3.35;;
22223;SDS011;11281;52.194;21.006;2023-05-10T05:35:46;7.07;;;3.75;;
22223;SDS011;11281;52.194;21.006;2023-05-10T05:39:51;7.13;;;4.15;;
22223;SDS011;11281;52.194;21.006;2023-05-10T05:43:53;7.03;;;3.33;;
22223;SDS011;11281;52.194;21.006;2023-05-10T05:47:54;5.30;;;3.05;;
22223;SDS011;11281;52.194;21.006;2023-05-10T05:52:00;4.32;;;2.72;;
22223;SDS011;11281;52.194;21.006;2023-05-10T05:56:03;6.57;;;2.58;;
22223;SDS011;11281;52.194;21.006;2023-05-10T06:00:05;4.28;;;2.70;;
22223;SDS011;11281;52.194;21.006;2023-05-10T06:04:08;3.40;;;2.33;;
22223;SDS011;11281;52.194;21.006;2023-05-10T06:08:09;3.25;;;2.50;;
22223;SDS011;11281;52.194;21.006;2023-05-10T06:12:12;3.00;;;2.25;;
22223;SDS011;11281;52.194;21.006;2023-05-10T06:16:14;4.03;;;2.25;;
22223;SDS011;11281;52.194;21.006;2023-05-10T06:20:15;4.43;;;2.20;;
22223;SDS011;11281;52.194;21.006;2023-05-10T06:24:17;4.22;;;1.75;;
22223;SDS011;11281;52.194;21.006;2023-05-10T06:28:19;6.10;;;2.10;;
22223;SDS011;11281;52.194;21.006;2023-05-10T06:32:21;3.35;;;2.10;;
22223;SDS011;11281;52.194;21.006;2023-05-10T06:36:23;2.78;;;2.13;;
22223;SDS011;11281;52.194;21.006;2023-05-10T06:40:26;6.13;;;2.38;;
22223;SDS011;11281;52.194;21.006;2023-05-10T06:44:28;4.75;;;2.08;;
22223;SDS011;11281;52.194;21.006;2023-05-10T06:48:30;3.70;;;2.05;;
22223;SDS011;11281;52.194;21.006;2023-05-10T06:52:32;5.35;;;1.95;;
22223;SDS011;11281;52.194;21.006;2023-05-10T06:56:33;4.25;;;2.28;;
22223;SDS011;11281;52.194;21.006;2023-05-10T07:00:35;6.47;;;2.17;;
22223;SDS011;11281;52.194;21.006;2023-05-10T07:04:41;2.72;;;1.98;;
22223;SDS011;11281;52.194;21.006;2023-05-10T07:08:42;5.50;;;1.80;;
22223;SDS011;11281;52.194;21.006;2023-05-10T07:12:45;3.00;;;1.60;;
22223;SDS011;11281;52.194;21.006;2023-05-10T07:16:46;2.42;;;1.77;;
22223;SDS011;11281;52.194;21.006;2023-05-10T07:20:48;4.97;;;1.85;;
22223;SDS011;11281;52.194;21.006;2023-05-10T07:24:50;6.15;;;1.55;;
22223;SDS011;11281;52.194;21.006;2023-05-10T07:28:52;9.15;;;1.75;;
22223;SDS011;11281;52.194;21.006;2023-05-10T07:32:54;2.33;;;1.40;;
22223;SDS011;11281;52.194;21.006;2023-05-10T07:36:59;6.15;;;1.50;;
22223;SDS011;11281;52.194;21.006;2023-05-10T07:41:02;3.35;;;1.63;;
22223;SDS011;11281;52.194;21.006;2023-05-10T07:45:04;3.80;;;1.67;;
22223;SDS011;11281;52.194;21.006;2023-05-10T07:49:07;2.50;;;1.80;;
22223;SDS011;11281;52.194;21.006;2023-05-10T07:53:09;4.88;;;1.27;;
22223;SDS011;11281;52.194;21.006;2023-05-10T07:57:10;3.30;;;1.50;;
22223;SDS011;11281;52.194;21.006;2023-05-10T08:01:12;2.33;;;1.42;;
22223;SDS011;11281;52.194;21.006;2023-05-10T08:05:14;3.47;;;1.20;;
22223;SDS011;11281;52.194;21.006;2023-05-10T08:09:16;1.92;;;1.27;;
22223;SDS011;11281;52.194;21.006;2023-05-10T08:13:18;4.68;;;1.50;;
22223;SDS011;11281;52.194;21.006;2023-05-10T08:17:19;1.85;;;1.35;;
22223;SDS011;11281;52.194;21.006;2023-05-10T08:21:21;1.60;;;1.50;;
22223;SDS011;11281;52.194;21.006;2023-05-10T08:25:23;5.50;;;1.58;;
22223;SDS011;11281;52.194;21.006;2023-05-10T08:29:25;3.83;;;1.60;;
22223;SDS011;11281;52.194;21.006;2023-05-10T08:33:27;3.03;;;1.90;;
22223;SDS011;11281;52.194;21.006;2023-05-10T08:37:29;4.35;;;1.35;;
22223;SDS011;11281;52.194;21.006;2023-05-10T08:41:33;1.40;;;1.30;;
22223;SDS011;11281;52.194;21.006;2023-05-10T08:45:40;3.95;;;1.95;;
22223;SDS011;11281;52.194;21.006;2023-05-10T08:49:44;1.73;;;1.50;;
22223;SDS011;11281;52.194;21.006;2023-05-10T08:53:52;3.75;;;1.80;;
22223;SDS011;11281;52.194;21.006;2023-05-10T08:57:53;2.88;;;1.60;;
22223;SDS011;11281;52.194;21.006;2023-05-10T09:01:57;2.15;;;1.50;;
22223;SDS011;11281;52.194;21.006;2023-05-10T09:06:00;3.38;;;1.55;;
22223;SDS011;11281;52.194;21.006;2023-05-10T09:10:02;1.75;;;1.30;;
22223;SDS011;11281;52.194;21.006;2023-05-10T09:14:05;2.65;;;1.30;;
22223;SDS011;11281;52.194;21.006;2023-05-10T09:18:06;2.75;;;1.70;;
22223;SDS011;11281;52.194;21.006;2023-05-10T09:22:08;1.58;;;1.48;;
22223;SDS011;11281;52.194;21.006;2023-05-10T09:26:10;3.83;;;1.58;;
22223;SDS011;11281;52.194;21.006;2023-05-10T09:30:16;3.15;;;1.40;;
22223;SDS011;11281;52.194;21.006;2023-05-10T09:34:29;1.80;;;1.55;;
22223;SDS011;11281;52.194;21.006;2023-05-10T09:38:44;2.60;;;1.60;;
22223;SDS011;11281;52.194;21.006;2023-05-10T09:42:56;2.28;;;1.55;;
22223;SDS011;11281;52.194;21.006;2023-05-10T09:47:03;2.58;;;1.50;;
22223;SDS011;11281;52.194;21.006;2023-05-10T09:51:05;3.00;;;1.50;;
22223;SDS011;11281;52.194;21.006;2023-05-10T09:55:06;2.38;;;1.60;;
22223;SDS011;11281;52.194;21.006;2023-05-10T09:59:10;1.95;;;1.38;;
22223;SDS011;11281;52.194;21.006;2023-05-10T10:03:13;1.83;;;1.38;;
22223;SDS011;11281;52.194;21.006;2023-05-10T10:07:21;3.78;;;1.48;;
22223;SDS011;11281;52.194;21.006;2023-05-10T10:11:26;5.05;;;1.73;;
22223;SDS011;11281;52.194;21.006;2023-05-10T10:15:28;2.67;;;1.50;;
22223;SDS011;11281;52.194;21.006;2023-05-10T10:19:30;2.85;;;1.55;;
22223;SDS011;11281;52.194;21.006;2023-05-10T10:23:35;1.40;;;1.30;;
22223;SDS011;11281;52.194;21.006;2023-05-10T10:36:23;2.35;;;1.40;;
22223;SDS011;11281;52.194;21.006;2023-05-10T10:40:31;6.00;;;1.63;;
22223;SDS011;11281;52.194;21.006;2023-05-10T10:44:35;4.00;;;1.45;;
22223;SDS011;11281;52.194;21.006;2023-05-10T10:48:39;3.63;;;1.27;;
22223;SDS011;11281;52.194;21.006;2023-05-10T10:52:53;2.95;;;1.83;;
22223;SDS011;11281;52.194;21.006;2023-05-10T10:57:17;2.65;;;1.63;;
22223;SDS011;11281;52.194;21.006;2023-05-10T11:01:20;2.53;;;1.30;;
22223;SDS011;11281;52.194;21.006;2023-05-10T11:09:30;5.07;;;1.52;;
22223;SDS011;11281;52.194;21.006;2023-05-10T11:13:44;1.90;;;1.70;;
22223;SDS011;11281;52.194;21.006;2023-05-10T11:17:51;2.63;;;1.58;;
22223;SDS011;11281;52.194;21.006;2023-05-10T11:26:07;3.75;;;1.77;;
22223;SDS011;11281;52.194;21.006;2023-05-10T11:30:12;2.88;;;1.77;;
22223;SDS011;11281;52.194;21.006;2023-05-10T11:34:22;3.25;;;2.00;;
22223;SDS011;11281;52.194;21.006;2023-05-10T11:38:34;5.32;;;1.77;;
22223;SDS011;11281;52.194;21.006;2023-05-10T11:42:37;2.90;;;1.38;;
22223;SDS011;11281;52.194;21.006;2023-05-10T11:46:38;1.80;;;1.50;;
22223;SDS011;11281;52.194;21.006;2023-05-10T11:50:43;3.70;;;1.80;;
22223;SDS011;11281;52.194;21.006;2023-05-10T11:54:50;2.70;;;1.35;;
22223;SDS011;11281;52.194;21.006;2023-05-10T11:58:54;5.30;;;2.05;;
22223;SDS011;11281;52.194;21.006;2023-05-10T12:03:01;3.60;;;1.35;;
22223;SDS011;11281;52.194;21.006;2023-05-10T12:07:03;4.53;;;1.67;;
22223;SDS011;11281;52.194;21.006;2023-05-10T12:11:07;4.32;;;1.52;;
22223;SDS011;11281;52.194;21.006;2023-05-10T12:19:20;2.22;;;1.33;;
22223;SDS011;11281;52.194;21.006;2023-05-10T12:23:22;2.92;;;1.40;;
22223;SDS011;11281;52.194;21.006;2023-05-10T12:27:23;1.65;;;1.38;;
22223;SDS011;11281;52.194;21.006;2023-05-10T12:31:25;3.92;;;1.40;;
22223;SDS011;11281;52.194;21.006;2023-05-10T12:35:30;3.33;;;1.55;;
22223;SDS011;11281;52.194;21.006;2023-05-10T12:39:39;4.65;;;1.70;;
22223;SDS011;11281;52.194;21.006;2023-05-10T12:43:42;3.08;;;1.40;;
22223;SDS011;11281;52.194;21.006;2023-05-10T12:47:44;3.92;;;1.55;;
22223;SDS011;11281;52.194;21.006;2023-05-10T12:51:46;2.22;;;1.70;;
22223;SDS011;11281;52.194;21.006;2023-05-10T12:55:48;6.60;;;1.50;;
22223;SDS011;11281;52.194;21.006;2023-05-10T12:59:50;2.78;;;1.45;;
22223;SDS011;11281;52.194;21.006;2023-05-10T13:03:52;2.13;;;1.45;;
22223;SDS011;11281;52.194;21.006;2023-05-10T13:07:54;2.53;;;1.20;;
22223;SDS011;11281;52.194;21.006;2023-05-10T13:11:56;8.18;;;1.80;;
22223;SDS011;11281;52.194;21.006;2023-05-10T13:15:58;1.98;;;1.40;;
22223;SDS011;11281;52.194;21.006;2023-05-10T13:20:00;4.47;;;1.48;;
22223;SDS011;11281;52.194;21.006;2023-05-10T13:24:02;2.80;;;1.50;;
22223;SDS011;11281;52.194;21.006;2023-05-10T13:28:04;2.38;;;1.63;;
22223;SDS011;11281;52.194;21.006;2023-05-10T13:32:06;1.52;;;1.30;;
22223;SDS011;11281;52.194;21.006;2023-05-10T13:36:08;2.17;;;1.50;;
22223;SDS011;11281;52.194;21.006;2023-05-10T13:40:09;1.83;;;1.48;;
22223;SDS011;11281;52.194;21.006;2023-05-10T13:44:12;1.75;;;1.65;;
22223;SDS011;11281;52.194;21.006;2023-05-10T13:48:15;1.70;;;1.60;;
22223;SDS011;11281;52.194;21.006;2023-05-10T13:52:17;2.67;;;1.95;;
22223;SDS011;11281;52.194;21.006;2023-05-10T13:56:19;2.95;;;1.58;;
22223;SDS011;11281;52.194;21.006;2023-05-10T14:00:21;2.42;;;1.52;;
22223;SDS011;11281;52.194;21.006;2023-05-10T14:04:23;2.80;;;1.60;;
22223;SDS011;11281;52.194;21.006;2023-05-10T14:08:25;2.83;;;1.45;;
22223;SDS011;11281;52.194;21.006;2023-05-10T14:12:27;1.95;;;1.60;;
22223;SDS011;11281;52.194;21.006;2023-05-10T14:16:29;2.35;;;1.80;;
22223;SDS011;11281;52.194;21.006;2023-05-10T14:20:31;2.00;;;1.45;;
22223;SDS011;11281;52.194;21.006;2023-05-10T14:24:35;1.23;;;1.10;;
22223;SDS011;11281;52.194;21.006;2023-05-10T14:28:37;1.75;;;1.42;;
22223;SDS011;11281;52.194;21.006;2023-05-10T14:32:38;1.63;;;1.50;;
22223;SDS011;11281;52.194;21.006;2023-05-10T14:36:40;2.17;;;1.40;;
22223;SDS011;11281;52.194;21.006;2023-05-10T14:40:41;2.70;;;1.40;;
22223;SDS011;11281;52.194;21.006;2023-05-10T14:44:43;3.65;;;1.33;;
22223;SDS011;11281;52.194;21.006;2023-05-10T14:48:45;2.35;;;1.50;;
22223;SDS011;11281;52.194;21.006;2023-05-10T14:52:46;4.90;;;1.63;;
22223;SDS011;11281;52.194;21.006;2023-05-10T14:56:48;2.05;;;1.50;;
22223;SDS011;11281;52.194;21.006;2023-05-10T15:00:50;1.70;;;1.42;;
22223;SDS011;11281;52.194;21.006;2023-05-10T15:04:52;1.92;;;1.40;;
22223;SDS011;11281;52.194;21.006;2023-05-10T15:08:54;1.63;;;1.50;;
22223;SDS011;11281;52.194;21.006;2023-05-10T15:12:56;1.30;;;1.15;;
22223;SDS011;11281;52.194;21.006;2023-05-10T15:16:58;1.75;;;1.65;;
22223;SDS011;11281;52.194;21.006;2023-05-10T15:21:00;2.88;;;1.25;;
22223;SDS011;11281;52.194;21.006;2023-05-10T15:25:02;1.98;;;1.58;;
22223;SDS011;11281;52.194;21.006;2023-05-10T15:29:04;1.65;;;1.27;;
22223;SDS011;11281;52.194;21.006;2023-05-10T15:33:05;2.70;;;1.27;;
22223;SDS011;11281;52.194;21.006;2023-05-10T15:37:08;4.30;;;1.40;;
22223;SDS011;11281;52.194;21.006;2023-05-10T15:41:10;3.08;;;1.52;;
22223;SDS011;11281;52.194;21.006;2023-05-10T15:45:12;1.40;;;1.30;;
22223;SDS011;11281;52.194;21.006;2023-05-10T15:49:14;2.40;;;1.55;;
22223;SDS011;11281;52.194;21.006;2023-05-10T15:53:16;1.95;;;1.10;;
22223;SDS011;11281;52.194;21.006;2023-05-10T15:57:17;1.30;;;1.20;;
22223;SDS011;11281;52.194;21.006;2023-05-10T16:01:19;3.05;;;1.33;;
22223;SDS011;11281;52.194;21.006;2023-05-10T16:05:21;3.40;;;1.58;;
22223;SDS011;11281;52.194;21.006;2023-05-10T16:09:23;2.67;;;1.50;;
22223;SDS011;11281;52.194;21.006;2023-05-10T16:13:25;1.77;;;1.40;;
22223;SDS011;11281;52.194;21.006;2023-05-10T16:17:26;3.17;;;1.50;;
22223;SDS011;11281;52.194;21.006;2023-05-10T16:21:29;1.65;;;1.20;;
22223;SDS011;11281;52.194;21.006;2023-05-10T16:25:34;3.67;;;1.17;;
22223;SDS011;11281;52.194;21.006;2023-05-10T16:29:36;2.08;;;1.50;;
22223;SDS011;11281;52.194;21.006;2023-05-10T16:33:37;2.45;;;1.30;;
22223;SDS011;11281;52.194;21.006;2023-05-10T16:37:39;1.30;;;1.20;;
22223;SDS011;11281;52.194;21.006;2023-05-10T16:41:41;2.08;;;1.52;;
22223;SDS011;11281;52.194;21.006;2023-05-10T16:45:42;4.57;;;1.40;;
22223;SDS011;11281;52.194;21.006;2023-05-10T16:49:44;1.85;;;1.25;;
22223;SDS011;11281;52.194;21.006;2023-05-10T16:53:45;5.05;;;1.48;;
22223;SDS011;11281;52.194;21.006;2023-05-10T16:57:47;2.35;;;1.45;;
22223;SDS011;11281;52.194;21.006;2023-05-10T17:01:49;1.58;;;1.48;;
22223;SDS011;11281;52.194;21.006;2023-05-10T17:05:53;2.05;;;1.48;;
22223;SDS011;11281;52.194;21.006;2023-05-10T17:09:54;3.83;;;1.42;;
22223;SDS011;11281;52.194;21.006;2023-05-10T17:13:57;1.88;;;1.30;;
22223;SDS011;11281;52.194;21.006;2023-05-10T17:18:00;2.70;;;1.73;;
22223;SDS011;11281;52.194;21.006;2023-05-10T17:22:02;4.32;;;1.63;;
22223;SDS011;11281;52.194;21.006;2023-05-10T17:26:04;3.35;;;1.52;;
22223;SDS011;11281;52.194;21.006;2023-05-10T17:30:06;4.22;;;1.73;;
22223;SDS011;11281;52.194;21.006;2023-05-10T17:34:08;3.35;;;1.63;;
22223;SDS011;11281;52.194;21.006;2023-05-10T17:38:10;4.25;;;1.80;;
22223;SDS011;11281;52.194;21.006;2023-05-10T17:42:12;3.17;;;1.60;;
22223;SDS011;11281;52.194;21.006;2023-05-10T17:46:17;1.65;;;1.50;;
22223;SDS011;11281;52.194;21.006;2023-05-10T17:50:19;2.15;;;1.60;;
22223;SDS011;11281;52.194;21.006;2023-05-10T17:54:21;2.58;;;1.80;;
22223;SDS011;11281;52.194;21.006;2023-05-10T17:58:23;1.70;;;1.60;;
22223;SDS011;11281;52.194;21.006;2023-05-10T18:02:24;2.28;;;2.00;;
22223;SDS011;11281;52.194;21.006;2023-05-10T18:06:26;4.80;;;1.73;;
22223;SDS011;11281;52.194;21.006;2023-05-10T18:10:27;3.45;;;1.88;;
22223;SDS011;11281;52.194;21.006;2023-05-10T18:14:29;2.40;;;1.60;;
22223;SDS011;11281;52.194;21.006;2023-05-10T18:18:31;2.97;;;1.80;;
22223;SDS011;11281;52.194;21.006;2023-05-10T18:22:33;1.67;;;1.58;;
22223;SDS011;11281;52.194;21.006;2023-05-10T18:26:35;2.15;;;1.75;;
22223;SDS011;11281;52.194;21.006;2023-05-10T18:30:36;2.38;;;1.92;;
22223;SDS011;11281;52.194;21.006;2023-05-10T18:34:38;6.85;;;2.00;;
22223;SDS011;11281;52.194;21.006;2023-05-10T18:38:40;6.97;;;2.30;;
22223;SDS011;11281;52.194;21.006;2023-05-10T18:42:42;4.65;;;2.30;;
22223;SDS011;11281;52.194;21.006;2023-05-10T18:46:46;3.15;;;2.20;;
22223;SDS011;11281;52.194;21.006;2023-05-10T18:50:47;4.28;;;2.47;;
22223;SDS011;11281;52.194;21.006;2023-05-10T18:54:50;2.80;;;2.30;;
22223;SDS011;11281;52.194;21.006;2023-05-10T18:58:52;4.03;;;2.67;;
22223;SDS011;11281;52.194;21.006;2023-05-10T19:02:54;4.13;;;2.58;;
22223;SDS011;11281;52.194;21.006;2023-05-10T19:06:56;5.57;;;2.80;;
22223;SDS011;11281;52.194;21.006;2023-05-10T19:10:57;3.15;;;2.45;;
22223;SDS011;11281;52.194;21.006;2023-05-10T19:15:01;4.68;;;2.97;;
22223;SDS011;11281;52.194;21.006;2023-05-10T19:19:02;6.13;;;2.95;;
22223;SDS011;11281;52.194;21.006;2023-05-10T19:23:04;6.25;;;3.15;;
22223;SDS011;11281;52.194;21.006;2023-05-10T19:27:06;3.22;;;2.78;;
22223;SDS011;11281;52.194;21.006;2023-05-10T19:31:08;3.70;;;2.60;;
22223;SDS011;11281;52.194;21.006;2023-05-10T19:35:10;5.93;;;3.47;;
22223;SDS011;11281;52.194;21.006;2023-05-10T19:39:12;7.90;;;2.97;;
22223;SDS011;11281;52.194;21.006;2023-05-10T19:43:15;5.15;;;2.75;;
22223;SDS011;11281;52.194;21.006;2023-05-10T19:47:17;5.10;;;3.38;;
22223;SDS011;11281;52.194;21.006;2023-05-10T19:51:19;3.35;;;3.05;;
22223;SDS011;11281;52.194;21.006;2023-05-10T19:55:25;7.22;;;4.68;;
22223;SDS011;11281;52.194;21.006;2023-05-10T19:59:29;6.65;;;4.10;;
22223;SDS011;11281;52.194;21.006;2023-05-10T20:03:31;6.93;;;4.40;;
22223;SDS011;11281;52.194;21.006;2023-05-10T20:07:35;5.43;;;4.18;;
22223;SDS011;11281;52.194;21.006;2023-05-10T20:11:36;9.10;;;4.90;;
22223;SDS011;11281;52.194;21.006;2023-05-10T20:15:38;10.18;;;5.45;;
22223;SDS011;11281;52.194;21.006;2023-05-10T20:19:40;10.75;;;5.90;;
22223;SDS011;11281;52.194;21.006;2023-05-10T20:23:42;10.60;;;5.43;;
22223;SDS011;11281;52.194;21.006;2023-05-10T20:27:44;9.77;;;6.00;;
22223;SDS011;11281;52.194;21.006;2023-05-10T20:31:46;11.80;;;6.47;;
22223;SDS011;11281;52.194;21.006;2023-05-10T20:35:48;12.98;;;5.75;;
22223;SDS011;11281;52.194;21.006;2023-05-10T20:39:52;11.38;;;5.13;;
22223;SDS011;11281;52.194;21.006;2023-05-10T20:43:55;9.63;;;5.95;;
22223;SDS011;11281;52.194;21.006;2023-05-10T20:47:56;14.20;;;5.75;;
22223;SDS011;11281;52.194;21.006;2023-05-10T20:51:58;7.43;;;5.00;;
22223;SDS011;11281;52.194;21.006;2023-05-10T20:56:00;11.55;;;5.65;;
22223;SDS011;11281;52.194;21.006;2023-05-10T21:00:02;8.48;;;5.28;;
22223;SDS011;11281;52.194;21.006;2023-05-10T21:04:05;10.00;;;4.90;;
22223;SDS011;11281;52.194;21.006;2023-05-10T21:08:06;9.05;;;4.65;;
22223;SDS011;11281;52.194;21.006;2023-05-10T21:12:08;10.77;;;4.70;;
22223;SDS011;11281;52.194;21.006;2023-05-10T21:16:10;9.15;;;4.63;;
22223;SDS011;11281;52.194;21.006;2023-05-10T21:20:12;9.68;;;4.43;;
22223;SDS011;11281;52.194;21.006;2023-05-10T21:24:14;7.13;;;4.07;;
22223;SDS011;11281;52.194;21.006;2023-05-10T21:28:16;8.65;;;4.50;;
22223;SDS011;11281;52.194;21.006;2023-05-10T21:32:17;9.85;;;4.22;;
22223;SDS011;11281;52.194;21.006;2023-05-10T21:36:19;6.10;;;3.47;;
22223;SDS011;11281;52.194;21.006;2023-05-10T21:40:21;9.02;;;4.40;;
22223;SDS011;11281;52.194;21.006;2023-05-10T21:44:23;4.63;;;3.95;;
22223;SDS011;11281;52.194;21.006;2023-05-10T21:48:25;6.65;;;4.47;;
22223;SDS011;11281;52.194;21.006;2023-05-10T21:52:27;7.20;;;4.38;;
22223;SDS011;11281;52.194;21.006;2023-05-10T21:56:28;7.65;;;4.60;;
22223;SDS011;11281;52.194;21.006;2023-05-10T22:00:30;6.90;;;3.80;;
22223;SDS011;11281;52.194;21.006;2023-05-10T22:04:31;7.43;;;4.07;;
22223;SDS011;11281;52.194;21.006;2023-05-10T22:08:33;7.10;;;4.07;;
22223;SDS011;11281;52.194;21.006;2023-05-10T22:12:35;8.52;;;4.75;;
22223;SDS011;11281;52.194;21.006;2023-05-10T22:16:36;5.75;;;3.70;;
22223;SDS011;11281;52.194;21.006;2023-05-10T22:20:38;8.82;;;4.78;;
22223;SDS011;11281;52.194;21.006;2023-05-10T22:24:40;7.50;;;4.18;;
22223;SDS011;11281;52.194;21.006;2023-05-10T22:28:41;10.85;;;4.57;;
22223;SDS011;11281;52.194;21.006;2023-05-10T22:32:44;6.68;;;4.50;;
22223;SDS011;11281;52.194;21.006;2023-05-10T22:36:46;6.93;;;4.32;;
22223;SDS011;11281;52.194;21.006;2023-05-10T22:40:49;10.57;;;4.40;;
22223;SDS011;11281;52.194;21.006;2023-05-10T22:44:50;5.15;;;3.83;;
22223;SDS011;11281;52.194;21.006;2023-05-10T22:48:52;7.57;;;4.25;;
22223;SDS011;11281;52.194;21.006;2023-05-10T22:52:54;5.85;;;3.60;;
22223;SDS011;11281;52.194;21.006;2023-05-10T22:56:56;6.05;;;3.38;;
22223;SDS011;11281;52.194;21.006;2023-05-10T23:00:58;5.68;;;3.60;;
22223;SDS011;11281;52.194;21.006;2023-05-10T23:04:59;11.55;;;4.43;;
22223;SDS011;11281;52.194;21.006;2023-05-10T23:09:01;5.40;;;3.40;;
22223;SDS011;11281;52.194;21.006;2023-05-10T23:13:03;6.05;;;3.53;;
22223;SDS011;11281;52.194;21.006;2023-05-10T23:17:05;5.72;;;3.92;;
22223;SDS011;11281;52.194;21.006;2023-05-10T23:21:08;4.93;;;3.22;;
22223;SDS011;11281;52.194;21.006;2023-05-10T23:25:10;7.40;;;3.42;;
22223;SDS011;11281;52.194;21.006;2023-05-10T23:29:11;8.50;;;3.78;;
22223;SDS011;11281;52.194;21.006;2023-05-10T23:33:13;4.97;;;3.35;;
22223;SDS011;11281;52.194;21.006;2023-05-10T23:37:15;7.50;;;3.67;;
22223;SDS011;11281;52.194;21.006;2023-05-10T23:41:17;7.65;;;4.18;;
22223;SDS011;11281;52.194;21.006;2023-05-10T23:45:19;4.85;;;3.75;;
22223;SDS011;11281;52.194;21.006;2023-05-10T23:49:20;3.75;;;2.92;;
22223;SDS011;11281;52.194;21.006;2023-05-10T23:53:22;7.32;;;3.63;;
22223;SDS011;11281;52.194;21.006;2023-05-10T23:57:23;4.93;;;3.28;;
